LTDA Airport Information

Runway Information
Runway 04 Length 9843 ft width 148 ft
Elevation 265 ft Threshold 0 ft Heading 42
Runway 22 Length 9843 ft Width 148 ft
Elevation 267 ft Threshold 0 ft Heading 222
Airport Frequencies
Airport Navaids
Airport Weather Information & NOTAM
ADDS - METARS form results

(0219 UTC 23 August 2019)
Data provider http://aviationweather.gov/metar/data/
 
METAR text: LTDA 230150Z 24008KT 210V330 CAVOK 26/22 Q1007 NOSIG
Conditions at: LTDA (HATAY AIRPORT , TR) observed 0150 UTC 23 August 2019
Temperature: 26.0°C (79°F)
Dewpoint: 22.0°C (72°F) [RH = 79%]
Pressure (altimeter): 29.73 inches Hg (1007.0 mb)
Winds: from the WSW (240 degrees) at 9 MPH (8 knots; 4.1 m/s)
Visibility: 6 or more miles (10+ km)
Ceiling: ceiling and visibility are OK
Clouds: unknown
Weather: no significant weather observed at this time

Forecast for: LTDA (HATAY AIRPORT , TR)
Text: TAF LTDA 230140Z 2303/2312 24012KT CAVOK
Forecast period: 0300 to 1200 UTC 23 August 2019
Forecast type: FROM: standard forecast or significant change
Winds: from the WSW (240 degrees) at 14 MPH (12 knots; 6.2 m/s)
Visibility: 6 or more miles 10+ km)
Ceiling: unknown
Clouds: missing
Weather: NSW  (no significant weather)